Troy Grove, Illinois
Current Conditions -  °F | °C
As of 11:35 PM on Thursday 27 Nov 2014 (Local Time) from KVYS Reporting Station
Overcast Overcast  
Wind Chill:   Ceiling: 12000
Heat Index: 13°   Visibility: 10mi
Dew Point:   Wind: 5mph
Humidity: 78%   Direction: 240°WSW
Pressure: 30.4"   Gusts: NA
Location:  41.47°N, 89.08°W
Report Text: KVYS 280535Z AUTO 24004KT 10SM OVC120 M10/M14 A3040 RMK AO2 T11051136
Loading
Personal Weather Stations






























Interactive Weather Map New forecast layout! Learn more

10-Day Weather Forecast

Advertisements
Track Severe Weather on mobile